Date,TemperatureHighF,TemperatureAvgF,TemperatureLowF,DewpointHighF,DewpointAvgF,DewpointLowF,HumidityHigh,HumidityAvg,HumidityLow,PressureMaxIn,PressureMinIn,WindSpeedMaxMPH,WindSpeedAvgMPH,GustSpeedMaxMPH,PrecipitationSumIn
2013-3-1,46.5,40.3,36.0,37.0,32.9,29.0,94,76,59,29.65,29.49,4,1,12,0.00
2013-3-2,44.8,39.0,34.4,31.0,28.8,27.0,75,67,56,29.66,29.59,7,1,11,0.00
2013-3-3,42.1,37.0,32.8,30.0,28.7,27.0,87,72,59,29.61,29.54,6,1,12,0.00
2013-3-4,43.4,35.9,29.8,30.0,24.9,23.0,88,66,49,29.70,29.55,14,2,21,0.00
2013-3-5,49.6,38.3,30.9,34.0,29.3,24.0,94,71,54,30.03,29.70,6,1,12,0.00
2013-3-6,43.5,38.3,34.1,37.0,35.0,32.0,94,88,73,30.02,29.89,16,6,28,0.04
2013-3-7,36.9,34.4,33.1,35.0,33.0,32.0,96,95,90,29.90,29.84,15,5,20,0.69
2013-3-8,37.1,33.9,32.5,34.0,32.3,31.0,96,94,80,30.04,29.83,11,3,17,0.27
2013-3-9,44.7,37.1,29.7,35.0,31.3,28.0,94,80,65,30.30,30.04,8,2,18,0.78
2013-3-10,51.9,38.2,29.7,38.0,33.1,28.0,95,83,57,30.37,30.30,7,1,11,0.00
2013-3-11,48.1,40.9,35.3,42.0,37.7,33.0,93,88,79,30.32,30.16,5,1,12,0.00
2013-3-12,53.2,49.3,43.6,52.0,47.8,42.0,97,94,90,30.16,29.73,13,4,24,0.90
2013-3-13,53.4,46.0,34.7,50.0,36.5,24.0,97,72,39,29.77,29.68,7,1,15,0.02
2013-3-14,37.6,33.0,25.6,28.0,19.1,8.0,79,58,42,29.82,29.70,16,2,17,0.00
2013-3-15,41.1,31.4,21.8,29.0,16.7,8.0,74,56,28,29.87,29.65,9,2,18,0.00
2013-3-16,41.2,35.6,29.5,29.0,21.1,11.0,76,58,30,29.84,29.67,4,0,12,0.00
2013-3-17,42.7,33.7,27.3,25.0,16.9,7.0,78,53,28,30.27,29.84,5,0,11,0.00
2013-3-18,38.2,30.6,21.0,27.0,15.0,2.0,75,53,40,30.43,30.20,9,2,15,0.00
2013-3-19,41.1,35.7,31.4,40.0,34.4,29.0,96,94,82,30.19,29.49,16,5,22,0.83
2013-3-20,42.0,34.9,30.0,31.0,23.9,20.0,92,67,43,29.80,29.66,10,2,23,0.01
2013-3-21,43.2,33.7,29.7,31.0,28.0,24.0,95,80,54,29.80,29.57,4,0,9,0.00
2013-3-22,40.8,34.1,26.4,29.0,23.4,20.0,95,67,43,29.74,29.58,16,2,21,0.28
2013-3-23,45.5,37.0,31.0,26.0,22.3,19.0,76,57,36,29.78,29.64,16,3,22,0.00
2013-3-24,53.5,39.5,32.1,30.0,25.8,21.0,85,60,38,29.82,29.70,8,2,14,0.00
2013-3-25,50.1,38.5,31.0,36.0,30.8,27.0,91,75,47,29.74,29.44,17,4,26,0.04
2013-3-26,49.9,40.3,33.2,34.0,30.1,25.0,94,69,42,29.77,29.45,7,1,13,0.05
2013-3-27,54.6,44.0,31.3,33.0,25.7,22.0,72,51,32,29.84,29.72,7,1,13,0.00
2013-3-28,50.6,42.8,37.5,39.0,34.3,30.0,92,73,48,30.00,29.82,4,1,11,0.01
2013-3-29,57.6,46.8,37.4,38.0,34.5,31.0,82,64,41,30.03,29.96,6,1,11,0.01
2013-3-30,57.6,47.9,38.0,34.0,31.7,22.0,72,56,27,30.08,29.98,7,1,14,0.00
2013-3-31,55.8,45.1,31.0,44.0,33.2,25.0,94,65,38,30.11,29.72,9,2,15,0.19